sensor_id;sensor_type;location;lat;lon;timestamp;temperature;humidity
13591;DHT22;6866;50.778;7.206;2023-12-22T00:01:06;7.50;99.90
13591;DHT22;6866;50.778;7.206;2023-12-22T00:03:32;7.60;99.90
13591;DHT22;6866;50.778;7.206;2023-12-22T00:05:57;7.70;99.90
13591;DHT22;6866;50.778;7.206;2023-12-22T00:08:23;7.70;99.90
13591;DHT22;6866;50.778;7.206;2023-12-22T00:10:51;7.70;99.90
13591;DHT22;6866;50.778;7.206;2023-12-22T00:13:17;7.60;99.90
13591;DHT22;6866;50.778;7.206;2023-12-22T00:15:43;7.10;99.90
13591;DHT22;6866;50.778;7.206;2023-12-22T00:18:08;6.80;99.90
13591;DHT22;6866;50.778;7.206;2023-12-22T00:20:34;6.70;99.90
13591;DHT22;6866;50.778;7.206;2023-12-22T00:23:00;6.50;99.90
13591;DHT22;6866;50.778;7.206;2023-12-22T00:25:26;6.60;99.90
13591;DHT22;6866;50.778;7.206;2023-12-22T00:27:51;6.60;99.90
13591;DHT22;6866;50.778;7.206;2023-12-22T00:30:17;6.50;99.90
13591;DHT22;6866;50.778;7.206;2023-12-22T00:32:43;6.40;99.90
13591;DHT22;6866;50.778;7.206;2023-12-22T00:35:08;6.40;99.90
13591;DHT22;6866;50.778;7.206;2023-12-22T00:37:34;6.30;99.90
13591;DHT22;6866;50.778;7.206;2023-12-22T00:39:59;6.20;99.90
13591;DHT22;6866;50.778;7.206;2023-12-22T00:42:25;6.40;99.90
13591;DHT22;6866;50.778;7.206;2023-12-22T00:44:51;6.40;99.90
13591;DHT22;6866;50.778;7.206;2023-12-22T00:47:17;6.40;99.90
13591;DHT22;6866;50.778;7.206;2023-12-22T00:49:42;6.50;99.90
13591;DHT22;6866;50.778;7.206;2023-12-22T00:52:08;6.50;99.90
13591;DHT22;6866;50.778;7.206;2023-12-22T00:54:33;6.60;99.90
13591;DHT22;6866;50.778;7.206;2023-12-22T00:56:59;6.60;99.90
13591;DHT22;6866;50.778;7.206;2023-12-22T00:59:24;6.60;99.90
13591;DHT22;6866;50.778;7.206;2023-12-22T01:01:50;6.60;99.90
13591;DHT22;6866;50.778;7.206;2023-12-22T01:04:15;6.60;99.90
13591;DHT22;6866;50.778;7.206;2023-12-22T01:06:41;6.70;99.90
13591;DHT22;6866;50.778;7.206;2023-12-22T01:09:07;6.70;99.90
13591;DHT22;6866;50.778;7.206;2023-12-22T01:11:32;6.70;99.90
13591;DHT22;6866;50.778;7.206;2023-12-22T01:13:58;6.80;99.90
13591;DHT22;6866;50.778;7.206;2023-12-22T01:16:23;6.80;99.90
13591;DHT22;6866;50.778;7.206;2023-12-22T01:18:50;6.90;99.90
13591;DHT22;6866;50.778;7.206;2023-12-22T01:21:16;6.80;99.90
13591;DHT22;6866;50.778;7.206;2023-12-22T01:23:42;6.80;99.90
13591;DHT22;6866;50.778;7.206;2023-12-22T01:26:08;6.90;99.90
13591;DHT22;6866;50.778;7.206;2023-12-22T01:28:34;7.00;99.90
13591;DHT22;6866;50.778;7.206;2023-12-22T01:31:00;7.00;99.90
13591;DHT22;6866;50.778;7.206;2023-12-22T01:33:26;7.00;99.90
13591;DHT22;6866;50.778;7.206;2023-12-22T01:35:51;7.00;99.90
13591;DHT22;6866;50.778;7.206;2023-12-22T01:38:17;6.90;99.90
13591;DHT22;6866;50.778;7.206;2023-12-22T01:40:43;7.00;99.90
13591;DHT22;6866;50.778;7.206;2023-12-22T01:43:08;7.00;99.90
13591;DHT22;6866;50.778;7.206;2023-12-22T01:45:34;7.00;99.90
13591;DHT22;6866;50.778;7.206;2023-12-22T01:48:00;7.00;99.90
13591;DHT22;6866;50.778;7.206;2023-12-22T01:50:26;7.00;99.90
13591;DHT22;6866;50.778;7.206;2023-12-22T01:52:52;7.00;99.90
13591;DHT22;6866;50.778;7.206;2023-12-22T01:55:18;7.00;99.90
13591;DHT22;6866;50.778;7.206;2023-12-22T01:57:44;7.00;99.90
13591;DHT22;6866;50.778;7.206;2023-12-22T02:05:20;7.20;99.90
13591;DHT22;6866;50.778;7.206;2023-12-22T02:07:46;7.20;99.90
13591;DHT22;6866;50.778;7.206;2023-12-22T02:10:11;7.20;99.90
13591;DHT22;6866;50.778;7.206;2023-12-22T02:12:37;7.10;99.90
13591;DHT22;6866;50.778;7.206;2023-12-22T02:15:03;7.20;99.90
13591;DHT22;6866;50.778;7.206;2023-12-22T02:17:44;7.20;99.90
13591;DHT22;6866;50.778;7.206;2023-12-22T02:20:12;7.20;99.90
13591;DHT22;6866;50.778;7.206;2023-12-22T02:22:38;7.20;99.90
13591;DHT22;6866;50.778;7.206;2023-12-22T02:25:04;7.20;99.90
13591;DHT22;6866;50.778;7.206;2023-12-22T02:27:50;7.10;99.90
13591;DHT22;6866;50.778;7.206;2023-12-22T02:30:34;7.10;99.90
13591;DHT22;6866;50.778;7.206;2023-12-22T02:33:07;7.00;99.90
13591;DHT22;6866;50.778;7.206;2023-12-22T02:35:36;7.00;99.90
13591;DHT22;6866;50.778;7.206;2023-12-22T02:38:04;7.00;99.90
13591;DHT22;6866;50.778;7.206;2023-12-22T02:40:31;7.00;99.90
13591;DHT22;6866;50.778;7.206;2023-12-22T02:42:57;6.90;99.90
13591;DHT22;6866;50.778;7.206;2023-12-22T02:45:22;6.90;99.90
13591;DHT22;6866;50.778;7.206;2023-12-22T02:47:48;7.00;99.90
13591;DHT22;6866;50.778;7.206;2023-12-22T02:50:15;6.90;99.90
13591;DHT22;6866;50.778;7.206;2023-12-22T02:52:41;7.00;99.90
13591;DHT22;6866;50.778;7.206;2023-12-22T02:55:07;7.10;99.90
13591;DHT22;6866;50.778;7.206;2023-12-22T02:57:32;7.10;99.90
13591;DHT22;6866;50.778;7.206;2023-12-22T02:59:58;7.20;99.90
13591;DHT22;6866;50.778;7.206;2023-12-22T03:02:24;7.20;99.90
13591;DHT22;6866;50.778;7.206;2023-12-22T03:04:49;7.10;99.90
13591;DHT22;6866;50.778;7.206;2023-12-22T03:07:15;7.20;99.90
13591;DHT22;6866;50.778;7.206;2023-12-22T03:09:42;7.20;99.90
13591;DHT22;6866;50.778;7.206;2023-12-22T03:12:08;7.20;99.90
13591;DHT22;6866;50.778;7.206;2023-12-22T03:14:34;7.20;99.90
13591;DHT22;6866;50.778;7.206;2023-12-22T03:17:01;7.10;99.90
13591;DHT22;6866;50.778;7.206;2023-12-22T03:19:26;7.20;99.90
13591;DHT22;6866;50.778;7.206;2023-12-22T03:21:52;7.30;99.90
13591;DHT22;6866;50.778;7.206;2023-12-22T03:24:18;7.20;99.90
13591;DHT22;6866;50.778;7.206;2023-12-22T03:26:48;7.30;99.90
13591;DHT22;6866;50.778;7.206;2023-12-22T03:29:14;7.30;99.90
13591;DHT22;6866;50.778;7.206;2023-12-22T03:31:39;7.30;99.90
13591;DHT22;6866;50.778;7.206;2023-12-22T03:34:05;7.30;99.90
13591;DHT22;6866;50.778;7.206;2023-12-22T03:36:31;7.30;99.90
13591;DHT22;6866;50.778;7.206;2023-12-22T03:38:56;7.30;99.90
13591;DHT22;6866;50.778;7.206;2023-12-22T03:41:22;7.40;99.90
13591;DHT22;6866;50.778;7.206;2023-12-22T03:43:47;7.40;99.90
13591;DHT22;6866;50.778;7.206;2023-12-22T03:46:13;7.50;99.90
13591;DHT22;6866;50.778;7.206;2023-12-22T03:48:38;7.50;99.90
13591;DHT22;6866;50.778;7.206;2023-12-22T03:51:04;7.50;99.90
13591;DHT22;6866;50.778;7.206;2023-12-22T03:53:29;7.50;99.90
13591;DHT22;6866;50.778;7.206;2023-12-22T03:55:55;7.50;99.90
13591;DHT22;6866;50.778;7.206;2023-12-22T03:58:20;7.60;99.90
13591;DHT22;6866;50.778;7.206;2023-12-22T04:00:46;7.60;99.90
13591;DHT22;6866;50.778;7.206;2023-12-22T04:03:12;7.70;99.90
13591;DHT22;6866;50.778;7.206;2023-12-22T04:05:38;7.70;99.90
13591;DHT22;6866;50.778;7.206;2023-12-22T04:08:04;7.70;99.90
13591;DHT22;6866;50.778;7.206;2023-12-22T04:10:30;7.60;99.90
13591;DHT22;6866;50.778;7.206;2023-12-22T04:12:55;7.60;99.90
13591;DHT22;6866;50.778;7.206;2023-12-22T04:15:21;7.70;99.90
13591;DHT22;6866;50.778;7.206;2023-12-22T04:17:46;7.70;99.90
13591;DHT22;6866;50.778;7.206;2023-12-22T04:20:12;7.80;99.90
13591;DHT22;6866;50.778;7.206;2023-12-22T04:22:38;7.80;99.90
13591;DHT22;6866;50.778;7.206;2023-12-22T04:25:04;7.80;99.90
13591;DHT22;6866;50.778;7.206;2023-12-22T04:27:31;7.80;99.90
13591;DHT22;6866;50.778;7.206;2023-12-22T04:29:57;7.90;99.90
13591;DHT22;6866;50.778;7.206;2023-12-22T04:32:22;7.80;99.90
13591;DHT22;6866;50.778;7.206;2023-12-22T04:34:48;7.80;99.90
13591;DHT22;6866;50.778;7.206;2023-12-22T04:37:13;7.90;99.90
13591;DHT22;6866;50.778;7.206;2023-12-22T04:39:39;7.80;99.90
13591;DHT22;6866;50.778;7.206;2023-12-22T04:42:05;7.80;99.90
13591;DHT22;6866;50.778;7.206;2023-12-22T04:44:30;7.90;99.90
13591;DHT22;6866;50.778;7.206;2023-12-22T04:46:56;7.90;99.90
13591;DHT22;6866;50.778;7.206;2023-12-22T04:49:21;7.90;99.90
13591;DHT22;6866;50.778;7.206;2023-12-22T04:51:47;7.90;99.90
13591;DHT22;6866;50.778;7.206;2023-12-22T04:54:12;7.80;99.90
13591;DHT22;6866;50.778;7.206;2023-12-22T04:56:38;7.80;99.90
13591;DHT22;6866;50.778;7.206;2023-12-22T04:59:03;7.80;99.90
13591;DHT22;6866;50.778;7.206;2023-12-22T05:01:29;7.80;99.90
13591;DHT22;6866;50.778;7.206;2023-12-22T05:03:54;7.80;99.90
13591;DHT22;6866;50.778;7.206;2023-12-22T05:06:20;7.70;99.90
13591;DHT22;6866;50.778;7.206;2023-12-22T05:08:45;7.70;99.90
13591;DHT22;6866;50.778;7.206;2023-12-22T05:11:12;7.70;99.90
13591;DHT22;6866;50.778;7.206;2023-12-22T05:13:37;7.70;99.90
13591;DHT22;6866;50.778;7.206;2023-12-22T05:16:03;7.80;99.90
13591;DHT22;6866;50.778;7.206;2023-12-22T05:18:30;7.70;99.90
13591;DHT22;6866;50.778;7.206;2023-12-22T05:20:55;7.80;99.90
13591;DHT22;6866;50.778;7.206;2023-12-22T05:23:21;7.80;99.90
13591;DHT22;6866;50.778;7.206;2023-12-22T05:25:47;7.80;99.90
13591;DHT22;6866;50.778;7.206;2023-12-22T05:28:12;7.80;99.90
13591;DHT22;6866;50.778;7.206;2023-12-22T05:30:38;7.80;99.90
13591;DHT22;6866;50.778;7.206;2023-12-22T05:33:03;7.90;99.90
13591;DHT22;6866;50.778;7.206;2023-12-22T05:35:29;7.90;99.90
13591;DHT22;6866;50.778;7.206;2023-12-22T05:37:55;8.00;99.90
13591;DHT22;6866;50.778;7.206;2023-12-22T05:40:20;8.00;99.90
13591;DHT22;6866;50.778;7.206;2023-12-22T05:42:46;8.10;99.90
13591;DHT22;6866;50.778;7.206;2023-12-22T05:45:11;8.10;99.90
13591;DHT22;6866;50.778;7.206;2023-12-22T05:47:37;8.20;99.90
13591;DHT22;6866;50.778;7.206;2023-12-22T05:50:04;8.20;99.90
13591;DHT22;6866;50.778;7.206;2023-12-22T05:52:29;8.10;99.90
13591;DHT22;6866;50.778;7.206;2023-12-22T05:54:55;8.20;99.90
13591;DHT22;6866;50.778;7.206;2023-12-22T05:57:20;8.30;99.90
13591;DHT22;6866;50.778;7.206;2023-12-22T05:59:46;8.30;99.90
13591;DHT22;6866;50.778;7.206;2023-12-22T06:02:11;8.30;99.90
13591;DHT22;6866;50.778;7.206;2023-12-22T06:04:38;8.40;99.90
13591;DHT22;6866;50.778;7.206;2023-12-22T06:07:04;8.40;99.90
13591;DHT22;6866;50.778;7.206;2023-12-22T06:09:30;8.40;99.90
13591;DHT22;6866;50.778;7.206;2023-12-22T06:11:55;8.40;99.90
13591;DHT22;6866;50.778;7.206;2023-12-22T06:14:21;8.50;99.90
13591;DHT22;6866;50.778;7.206;2023-12-22T06:16:46;8.50;99.90
13591;DHT22;6866;50.778;7.206;2023-12-22T06:19:12;8.50;99.90
13591;DHT22;6866;50.778;7.206;2023-12-22T06:21:38;8.50;99.90
13591;DHT22;6866;50.778;7.206;2023-12-22T06:24:04;8.50;99.90
13591;DHT22;6866;50.778;7.206;2023-12-22T06:26:30;8.60;99.90
13591;DHT22;6866;50.778;7.206;2023-12-22T06:28:56;8.60;99.90
13591;DHT22;6866;50.778;7.206;2023-12-22T06:31:22;8.60;99.90
13591;DHT22;6866;50.778;7.206;2023-12-22T06:33:49;8.60;99.90
13591;DHT22;6866;50.778;7.206;2023-12-22T06:36:21;8.50;99.90
13591;DHT22;6866;50.778;7.206;2023-12-22T06:38:48;8.60;99.90
13591;DHT22;6866;50.778;7.206;2023-12-22T06:41:24;8.60;99.90
13591;DHT22;6866;50.778;7.206;2023-12-22T06:43:51;8.60;99.90
13591;DHT22;6866;50.778;7.206;2023-12-22T06:46:23;8.60;99.90
13591;DHT22;6866;50.778;7.206;2023-12-22T06:48:51;8.60;99.90
13591;DHT22;6866;50.778;7.206;2023-12-22T06:51:22;8.60;99.90
13591;DHT22;6866;50.778;7.206;2023-12-22T06:53:48;8.70;99.90
13591;DHT22;6866;50.778;7.206;2023-12-22T06:56:21;8.60;99.90
13591;DHT22;6866;50.778;7.206;2023-12-22T06:58:48;8.70;99.90
13591;DHT22;6866;50.778;7.206;2023-12-22T07:01:21;8.60;99.90
13591;DHT22;6866;50.778;7.206;2023-12-22T07:03:48;8.70;99.90
13591;DHT22;6866;50.778;7.206;2023-12-22T07:06:15;8.60;99.90
13591;DHT22;6866;50.778;7.206;2023-12-22T07:08:40;8.60;99.90
13591;DHT22;6866;50.778;7.206;2023-12-22T07:11:06;8.60;99.90
13591;DHT22;6866;50.778;7.206;2023-12-22T07:13:32;8.60;99.90
13591;DHT22;6866;50.778;7.206;2023-12-22T07:15:58;8.60;99.90
13591;DHT22;6866;50.778;7.206;2023-12-22T07:18:23;8.40;99.90
13591;DHT22;6866;50.778;7.206;2023-12-22T07:20:50;8.20;99.90
13591;DHT22;6866;50.778;7.206;2023-12-22T07:23:16;8.00;99.90
13591;DHT22;6866;50.778;7.206;2023-12-22T07:25:41;8.00;99.90
13591;DHT22;6866;50.778;7.206;2023-12-22T07:28:07;8.00;99.90
13591;DHT22;6866;50.778;7.206;2023-12-22T07:30:33;8.10;99.90
13591;DHT22;6866;50.778;7.206;2023-12-22T07:32:58;8.00;99.90
13591;DHT22;6866;50.778;7.206;2023-12-22T07:35:24;7.90;99.90
13591;DHT22;6866;50.778;7.206;2023-12-22T07:37:49;7.80;99.90
13591;DHT22;6866;50.778;7.206;2023-12-22T07:40:15;7.80;99.90
13591;DHT22;6866;50.778;7.206;2023-12-22T07:42:41;7.80;99.90
13591;DHT22;6866;50.778;7.206;2023-12-22T07:45:07;7.80;99.90
13591;DHT22;6866;50.778;7.206;2023-12-22T07:47:33;7.90;99.90
13591;DHT22;6866;50.778;7.206;2023-12-22T07:49:58;7.90;99.90
13591;DHT22;6866;50.778;7.206;2023-12-22T07:52:24;7.90;99.90
13591;DHT22;6866;50.778;7.206;2023-12-22T07:54:49;8.00;99.90
13591;DHT22;6866;50.778;7.206;2023-12-22T07:57:16;8.00;99.90
13591;DHT22;6866;50.778;7.206;2023-12-22T07:59:41;8.00;99.90
13591;DHT22;6866;50.778;7.206;2023-12-22T08:02:07;8.10;99.90
13591;DHT22;6866;50.778;7.206;2023-12-22T08:04:33;8.00;99.90
13591;DHT22;6866;50.778;7.206;2023-12-22T08:06:58;8.00;99.90
13591;DHT22;6866;50.778;7.206;2023-12-22T08:09:24;8.00;99.90
13591;DHT22;6866;50.778;7.206;2023-12-22T08:11:49;8.10;99.90
13591;DHT22;6866;50.778;7.206;2023-12-22T08:14:19;8.10;99.90
13591;DHT22;6866;50.778;7.206;2023-12-22T08:16:44;8.20;99.90
13591;DHT22;6866;50.778;7.206;2023-12-22T08:19:10;8.20;99.90
13591;DHT22;6866;50.778;7.206;2023-12-22T08:21:35;8.20;99.90
13591;DHT22;6866;50.778;7.206;2023-12-22T08:24:01;8.20;99.90
13591;DHT22;6866;50.778;7.206;2023-12-22T08:26:26;8.30;99.90
13591;DHT22;6866;50.778;7.206;2023-12-22T08:28:52;8.30;99.90
13591;DHT22;6866;50.778;7.206;2023-12-22T08:31:18;8.30;99.90
13591;DHT22;6866;50.778;7.206;2023-12-22T08:33:43;8.30;99.90
13591;DHT22;6866;50.778;7.206;2023-12-22T08:36:10;8.30;99.90
13591;DHT22;6866;50.778;7.206;2023-12-22T08:38:37;8.40;99.90
13591;DHT22;6866;50.778;7.206;2023-12-22T08:41:06;8.40;99.90
13591;DHT22;6866;50.778;7.206;2023-12-22T08:43:32;8.40;99.90
13591;DHT22;6866;50.778;7.206;2023-12-22T08:45:58;8.50;99.90
13591;DHT22;6866;50.778;7.206;2023-12-22T08:48:23;8.50;99.90
13591;DHT22;6866;50.778;7.206;2023-12-22T08:50:49;8.60;99.90
13591;DHT22;6866;50.778;7.206;2023-12-22T08:53:15;8.60;99.90
13591;DHT22;6866;50.778;7.206;2023-12-22T08:55:40;8.70;99.90
13591;DHT22;6866;50.778;7.206;2023-12-22T08:58:06;8.70;99.90
13591;DHT22;6866;50.778;7.206;2023-12-22T09:00:31;8.80;99.90
13591;DHT22;6866;50.778;7.206;2023-12-22T09:02:57;8.80;99.90
13591;DHT22;6866;50.778;7.206;2023-12-22T09:05:23;8.80;99.90
13591;DHT22;6866;50.778;7.206;2023-12-22T09:07:48;8.90;99.90
13591;DHT22;6866;50.778;7.206;2023-12-22T09:10:14;8.90;99.90
13591;DHT22;6866;50.778;7.206;2023-12-22T09:12:39;8.90;99.90
13591;DHT22;6866;50.778;7.206;2023-12-22T09:15:05;8.90;99.90
13591;DHT22;6866;50.778;7.206;2023-12-22T09:17:31;9.00;99.90
13591;DHT22;6866;50.778;7.206;2023-12-22T09:19:57;9.00;99.90
13591;DHT22;6866;50.778;7.206;2023-12-22T09:22:23;9.00;99.90
13591;DHT22;6866;50.778;7.206;2023-12-22T09:24:49;9.00;99.90
13591;DHT22;6866;50.778;7.206;2023-12-22T09:27:14;9.00;99.90
13591;DHT22;6866;50.778;7.206;2023-12-22T09:43:15;9.30;99.90
13591;DHT22;6866;50.778;7.206;2023-12-22T09:45:41;9.30;99.90
13591;DHT22;6866;50.778;7.206;2023-12-22T09:48:08;9.30;99.90
13591;DHT22;6866;50.778;7.206;2023-12-22T09:50:37;9.30;99.90
13591;DHT22;6866;50.778;7.206;2023-12-22T09:53:14;9.30;99.90
13591;DHT22;6866;50.778;7.206;2023-12-22T09:55:46;9.40;99.90
13591;DHT22;6866;50.778;7.206;2023-12-22T09:58:47;9.40;99.90
13591;DHT22;6866;50.778;7.206;2023-12-22T10:01:32;9.40;99.90
13591;DHT22;6866;50.778;7.206;2023-12-22T10:04:00;9.40;99.90
13591;DHT22;6866;50.778;7.206;2023-12-22T10:06:25;9.40;99.90
13591;DHT22;6866;50.778;7.206;2023-12-22T10:08:52;9.40;99.90
13591;DHT22;6866;50.778;7.206;2023-12-22T10:11:19;9.40;99.90
13591;DHT22;6866;50.778;7.206;2023-12-22T10:13:46;9.50;99.90
13591;DHT22;6866;50.778;7.206;2023-12-22T10:16:14;9.50;99.90
13591;DHT22;6866;50.778;7.206;2023-12-22T10:18:39;9.60;99.90
13591;DHT22;6866;50.778;7.206;2023-12-22T10:21:05;9.60;99.90
13591;DHT22;6866;50.778;7.206;2023-12-22T10:23:30;9.60;99.90
13591;DHT22;6866;50.778;7.206;2023-12-22T10:25:57;9.60;99.90
13591;DHT22;6866;50.778;7.206;2023-12-22T10:28:27;9.60;99.90
13591;DHT22;6866;50.778;7.206;2023-12-22T10:30:53;9.60;99.90
13591;DHT22;6866;50.778;7.206;2023-12-22T10:33:21;9.60;99.90
13591;DHT22;6866;50.778;7.206;2023-12-22T10:35:46;9.60;99.90
13591;DHT22;6866;50.778;7.206;2023-12-22T10:38:14;9.60;99.90
13591;DHT22;6866;50.778;7.206;2023-12-22T10:40:39;9.60;99.90
13591;DHT22;6866;50.778;7.206;2023-12-22T10:43:05;9.60;99.90
13591;DHT22;6866;50.778;7.206;2023-12-22T10:45:31;9.60;99.90
13591;DHT22;6866;50.778;7.206;2023-12-22T10:47:57;9.60;99.90
13591;DHT22;6866;50.778;7.206;2023-12-22T10:50:23;9.50;99.90
13591;DHT22;6866;50.778;7.206;2023-12-22T10:52:50;9.50;99.90
13591;DHT22;6866;50.778;7.206;2023-12-22T10:55:16;9.60;99.90
13591;DHT22;6866;50.778;7.206;2023-12-22T10:57:47;9.60;99.90
13591;DHT22;6866;50.778;7.206;2023-12-22T11:00:16;9.50;99.90
13591;DHT22;6866;50.778;7.206;2023-12-22T11:02:47;9.50;99.90
13591;DHT22;6866;50.778;7.206;2023-12-22T11:05:15;9.50;99.90
13591;DHT22;6866;50.778;7.206;2023-12-22T11:07:47;9.50;99.90
13591;DHT22;6866;50.778;7.206;2023-12-22T11:10:17;9.50;99.90
13591;DHT22;6866;50.778;7.206;2023-12-22T11:12:47;9.40;99.90
13591;DHT22;6866;50.778;7.206;2023-12-22T11:15:14;9.40;99.90
13591;DHT22;6866;50.778;7.206;2023-12-22T11:17:42;9.40;99.90
13591;DHT22;6866;50.778;7.206;2023-12-22T11:20:12;9.40;99.90
13591;DHT22;6866;50.778;7.206;2023-12-22T11:22:39;9.40;99.90
13591;DHT22;6866;50.778;7.206;2023-12-22T11:25:06;9.50;99.90
13591;DHT22;6866;50.778;7.206;2023-12-22T11:27:33;9.60;99.90
13591;DHT22;6866;50.778;7.206;2023-12-22T11:30:00;9.60;99.90
13591;DHT22;6866;50.778;7.206;2023-12-22T11:32:27;9.70;99.90
13591;DHT22;6866;50.778;7.206;2023-12-22T11:34:54;9.70;99.90
13591;DHT22;6866;50.778;7.206;2023-12-22T11:37:21;9.80;99.90
13591;DHT22;6866;50.778;7.206;2023-12-22T11:39:47;9.80;99.90
13591;DHT22;6866;50.778;7.206;2023-12-22T11:42:19;9.80;99.90
13591;DHT22;6866;50.778;7.206;2023-12-22T11:44:46;9.80;99.90
13591;DHT22;6866;50.778;7.206;2023-12-22T11:47:14;9.80;99.90
13591;DHT22;6866;50.778;7.206;2023-12-22T11:49:40;9.80;99.90
13591;DHT22;6866;50.778;7.206;2023-12-22T11:52:16;9.80;99.90
13591;DHT22;6866;50.778;7.206;2023-12-22T11:54:53;9.80;99.90
13591;DHT22;6866;50.778;7.206;2023-12-22T11:59:58;9.90;99.90
13591;DHT22;6866;50.778;7.206;2023-12-22T12:02:24;9.70;99.90
13591;DHT22;6866;50.778;7.206;2023-12-22T12:04:53;9.70;99.90
13591;DHT22;6866;50.778;7.206;2023-12-22T12:07:47;9.70;99.90
13591;DHT22;6866;50.778;7.206;2023-12-22T12:13:07;9.70;99.90
13591;DHT22;6866;50.778;7.206;2023-12-22T12:15:34;9.70;99.90
13591;DHT22;6866;50.778;7.206;2023-12-22T12:18:00;9.70;99.90
13591;DHT22;6866;50.778;7.206;2023-12-22T12:20:27;9.70;99.90
13591;DHT22;6866;50.778;7.206;2023-12-22T12:22:53;9.80;99.90
13591;DHT22;6866;50.778;7.206;2023-12-22T12:25:28;9.90;99.90
13591;DHT22;6866;50.778;7.206;2023-12-22T12:28:07;9.90;99.90
13591;DHT22;6866;50.778;7.206;2023-12-22T12:30:38;10.00;99.90
13591;DHT22;6866;50.778;7.206;2023-12-22T12:33:11;10.00;99.90
13591;DHT22;6866;50.778;7.206;2023-12-22T12:35:40;10.00;99.90
13591;DHT22;6866;50.778;7.206;2023-12-22T12:38:06;10.00;99.90
13591;DHT22;6866;50.778;7.206;2023-12-22T12:40:32;10.00;99.90
13591;DHT22;6866;50.778;7.206;2023-12-22T12:43:00;10.10;99.90
13591;DHT22;6866;50.778;7.206;2023-12-22T12:45:26;10.10;99.90
13591;DHT22;6866;50.778;7.206;2023-12-22T12:48:01;10.10;99.90
13591;DHT22;6866;50.778;7.206;2023-12-22T12:50:30;10.10;99.90
13591;DHT22;6866;50.778;7.206;2023-12-22T12:53:05;10.20;99.90
13591;DHT22;6866;50.778;7.206;2023-12-22T12:55:31;10.10;99.90
13591;DHT22;6866;50.778;7.206;2023-12-22T12:58:00;10.20;99.90
13591;DHT22;6866;50.778;7.206;2023-12-22T13:00:31;10.30;99.90
13591;DHT22;6866;50.778;7.206;2023-12-22T13:03:01;10.40;99.90
13591;DHT22;6866;50.778;7.206;2023-12-22T13:05:30;10.40;99.90
13591;DHT22;6866;50.778;7.206;2023-12-22T13:08:09;10.40;99.90
13591;DHT22;6866;50.778;7.206;2023-12-22T13:10:35;10.40;99.90
13591;DHT22;6866;50.778;7.206;2023-12-22T13:13:01;10.40;99.90
13591;DHT22;6866;50.778;7.206;2023-12-22T13:15:26;10.40;99.90
13591;DHT22;6866;50.778;7.206;2023-12-22T13:17:52;10.40;99.90
13591;DHT22;6866;50.778;7.206;2023-12-22T13:20:18;10.40;99.90
13591;DHT22;6866;50.778;7.206;2023-12-22T13:22:44;10.40;99.90
13591;DHT22;6866;50.778;7.206;2023-12-22T13:25:10;10.40;99.90
13591;DHT22;6866;50.778;7.206;2023-12-22T13:27:46;10.30;99.90
13591;DHT22;6866;50.778;7.206;2023-12-22T13:30:31;10.30;99.90
13591;DHT22;6866;50.778;7.206;2023-12-22T13:32:57;10.30;99.90
13591;DHT22;6866;50.778;7.206;2023-12-22T13:35:23;10.30;99.90
13591;DHT22;6866;50.778;7.206;2023-12-22T13:37:49;10.30;99.90
13591;DHT22;6866;50.778;7.206;2023-12-22T13:40:14;10.40;99.90
13591;DHT22;6866;50.778;7.206;2023-12-22T13:42:40;10.30;99.90
13591;DHT22;6866;50.778;7.206;2023-12-22T13:45:10;10.30;99.90
13591;DHT22;6866;50.778;7.206;2023-12-22T13:47:40;10.30;99.90
13591;DHT22;6866;50.778;7.206;2023-12-22T13:50:14;10.30;99.90
13591;DHT22;6866;50.778;7.206;2023-12-22T13:52:41;10.20;99.90
13591;DHT22;6866;50.778;7.206;2023-12-22T13:55:15;10.20;99.90
13591;DHT22;6866;50.778;7.206;2023-12-22T13:57:41;10.20;99.90
13591;DHT22;6866;50.778;7.206;2023-12-22T14:02:45;10.20;99.90
13591;DHT22;6866;50.778;7.206;2023-12-22T14:05:11;10.30;99.90
13591;DHT22;6866;50.778;7.206;2023-12-22T14:07:37;10.30;99.90
13591;DHT22;6866;50.778;7.206;2023-12-22T14:10:09;10.30;99.90
13591;DHT22;6866;50.778;7.206;2023-12-22T14:12:36;10.40;99.90
13591;DHT22;6866;50.778;7.206;2023-12-22T14:15:12;10.40;99.90
13591;DHT22;6866;50.778;7.206;2023-12-22T14:17:38;10.40;99.90
13591;DHT22;6866;50.778;7.206;2023-12-22T14:20:04;10.40;99.90
13591;DHT22;6866;50.778;7.206;2023-12-22T14:22:30;10.40;99.90
13591;DHT22;6866;50.778;7.206;2023-12-22T14:24:56;10.50;99.90
13591;DHT22;6866;50.778;7.206;2023-12-22T14:27:24;10.50;99.90
13591;DHT22;6866;50.778;7.206;2023-12-22T14:29:50;10.50;99.90
13591;DHT22;6866;50.778;7.206;2023-12-22T14:32:16;10.40;99.90
13591;DHT22;6866;50.778;7.206;2023-12-22T14:34:44;10.50;99.90
13591;DHT22;6866;50.778;7.206;2023-12-22T14:37:10;10.40;99.90
13591;DHT22;6866;50.778;7.206;2023-12-22T14:39:36;10.40;99.90
13591;DHT22;6866;50.778;7.206;2023-12-22T14:42:01;10.40;99.90
13591;DHT22;6866;50.778;7.206;2023-12-22T14:44:28;10.40;99.90
13591;DHT22;6866;50.778;7.206;2023-12-22T14:46:54;10.40;99.90
13591;DHT22;6866;50.778;7.206;2023-12-22T14:49:19;10.30;99.90
13591;DHT22;6866;50.778;7.206;2023-12-22T14:51:45;10.40;99.90
13591;DHT22;6866;50.778;7.206;2023-12-22T14:54:12;10.40;99.90
13591;DHT22;6866;50.778;7.206;2023-12-22T14:56:41;10.30;99.90
13591;DHT22;6866;50.778;7.206;2023-12-22T14:59:10;10.40;99.90
13591;DHT22;6866;50.778;7.206;2023-12-22T15:01:39;10.30;99.90
13591;DHT22;6866;50.778;7.206;2023-12-22T15:04:08;10.30;99.90
13591;DHT22;6866;50.778;7.206;2023-12-22T15:06:38;10.40;99.90
13591;DHT22;6866;50.778;7.206;2023-12-22T15:09:03;10.40;99.90
13591;DHT22;6866;50.778;7.206;2023-12-22T15:11:29;10.40;99.90
13591;DHT22;6866;50.778;7.206;2023-12-22T15:13:54;10.40;99.90
13591;DHT22;6866;50.778;7.206;2023-12-22T15:16:20;10.40;99.90
13591;DHT22;6866;50.778;7.206;2023-12-22T15:18:45;10.40;99.90
13591;DHT22;6866;50.778;7.206;2023-12-22T15:21:22;10.40;99.90
13591;DHT22;6866;50.778;7.206;2023-12-22T15:23:49;10.40;99.90
13591;DHT22;6866;50.778;7.206;2023-12-22T15:26:24;10.40;99.90
13591;DHT22;6866;50.778;7.206;2023-12-22T15:28:54;10.30;99.90
13591;DHT22;6866;50.778;7.206;2023-12-22T15:31:20;10.30;99.90
13591;DHT22;6866;50.778;7.206;2023-12-22T15:33:46;10.30;99.90
13591;DHT22;6866;50.778;7.206;2023-12-22T15:36:17;10.30;99.90
13591;DHT22;6866;50.778;7.206;2023-12-22T15:38:44;10.40;99.90
13591;DHT22;6866;50.778;7.206;2023-12-22T15:41:09;10.40;99.90
13591;DHT22;6866;50.778;7.206;2023-12-22T15:43:35;10.30;99.90
13591;DHT22;6866;50.778;7.206;2023-12-22T15:46:05;10.30;99.90
13591;DHT22;6866;50.778;7.206;2023-12-22T15:48:31;10.30;99.90
13591;DHT22;6866;50.778;7.206;2023-12-22T15:50:57;10.30;99.90
13591;DHT22;6866;50.778;7.206;2023-12-22T15:53:22;10.20;99.90
13591;DHT22;6866;50.778;7.206;2023-12-22T15:55:48;10.20;99.90
13591;DHT22;6866;50.778;7.206;2023-12-22T15:58:14;10.20;99.90
13591;DHT22;6866;50.778;7.206;2023-12-22T16:00:39;10.20;99.90
13591;DHT22;6866;50.778;7.206;2023-12-22T16:03:05;10.20;99.90
13591;DHT22;6866;50.778;7.206;2023-12-22T16:05:30;10.20;99.90
13591;DHT22;6866;50.778;7.206;2023-12-22T16:07:56;10.20;99.90
13591;DHT22;6866;50.778;7.206;2023-12-22T16:10:27;10.20;99.90
13591;DHT22;6866;50.778;7.206;2023-12-22T16:12:52;10.20;99.90
13591;DHT22;6866;50.778;7.206;2023-12-22T16:15:18;10.20;99.90
13591;DHT22;6866;50.778;7.206;2023-12-22T16:17:44;10.20;99.90
13591;DHT22;6866;50.778;7.206;2023-12-22T16:20:10;10.20;99.90
13591;DHT22;6866;50.778;7.206;2023-12-22T16:22:37;10.20;99.90